createdAt,value
2018-06-02T00:00:44.380Z,55.53
2018-06-02T00:03:11.152Z,55.53
2018-06-02T00:05:37.964Z,56.97
2018-06-02T00:08:04.851Z,54.37
2018-06-02T00:10:32.422Z,54.37
2018-06-02T00:13:00.032Z,52.80
2018-06-02T00:15:26.848Z,56.00
2018-06-02T00:17:53.632Z,55.87
2018-06-02T00:20:20.498Z,55.70
2018-06-02T00:22:48.169Z,56.37
2018-06-02T00:25:15.680Z,55.67
2018-06-02T00:27:42.461Z,54.63
2018-06-02T00:30:09.288Z,55.53
2018-06-02T00:32:36.120Z,53.27
2018-06-02T00:35:03.052Z,54.60
2018-06-02T00:37:29.824Z,54.70
2018-06-02T00:39:56.604Z,54.80
2018-06-02T00:42:23.420Z,54.90
2018-06-02T00:44:50.239Z,56.23
2018-06-02T00:47:17.062Z,55.97
2018-06-02T00:49:43.851Z,56.80
2018-06-02T00:52:11.374Z,54.97
2018-06-02T00:54:56.492Z,56.33
2018-06-02T00:57:23.324Z,54.30
2018-06-02T00:59:50.140Z,54.50
2018-06-02T01:02:16.908Z,56.00
2018-06-02T01:04:43.678Z,55.60
2018-06-02T01:07:11.244Z,54.73
2018-06-02T01:09:38.084Z,56.13
2018-06-02T01:12:05.703Z,55.17
2018-06-02T01:14:32.514Z,57.03
2018-06-02T01:16:59.383Z,55.17
2018-06-02T01:19:26.163Z,56.37
2018-06-02T01:21:53.040Z,55.43
2018-06-02T01:24:19.859Z,56.87
2018-06-02T01:26:47.372Z,56.03
2018-06-02T01:29:14.201Z,57.67
2018-06-02T01:31:40.976Z,56.93
2018-06-02T01:34:07.825Z,55.77
2018-06-02T01:36:34.747Z,55.80
2018-06-02T01:39:01.547Z,56.40
2018-06-02T01:41:28.324Z,54.67
2018-06-02T01:43:55.136Z,52.77
2018-06-02T01:46:22.014Z,54.30
2018-06-02T01:48:48.796Z,52.93
2018-06-02T01:51:16.316Z,49.83
2018-06-02T01:53:43.164Z,45.63
2018-06-02T01:56:09.944Z,42.83
2018-06-02T01:58:37.567Z,38.03
2018-06-02T02:01:04.426Z,35.03
2018-06-02T02:03:31.216Z,34.90
2018-06-02T02:05:58.004Z,33.60
2018-06-02T02:08:25.153Z,32.47
2018-06-02T02:10:53.018Z,32.87
2018-06-02T02:13:19.818Z,32.40
2018-06-02T02:15:46.746Z,30.73
2018-06-02T02:18:13.576Z,33.60
2018-06-02T02:20:40.363Z,32.20
2018-06-02T02:23:08.007Z,32.17
2018-06-02T02:25:35.559Z,35.43
2018-06-02T02:28:03.105Z,34.23
2018-06-02T02:30:29.931Z,33.27
2018-06-02T02:32:56.734Z,34.83
2018-06-02T02:35:23.567Z,35.80
2018-06-02T02:37:50.758Z,35.57
2018-06-02T02:40:17.527Z,38.33
2018-06-02T02:42:44.290Z,34.73
2018-06-02T02:45:17.173Z,37.07
2018-06-02T02:47:44.000Z,36.97
2018-06-02T02:50:10.775Z,39.13
2018-06-02T02:52:37.596Z,38.90
2018-06-02T02:55:05.531Z,39.23
2018-06-02T02:57:32.331Z,40.13
2018-06-02T02:59:59.180Z,40.30
2018-06-02T03:02:25.997Z,40.67
2018-06-02T03:04:53.512Z,42.20
2018-06-02T03:07:20.468Z,39.07
2018-06-02T03:09:47.260Z,41.73
2018-06-02T03:12:14.104Z,41.83
2018-06-02T03:14:41.684Z,41.73
2018-06-02T03:17:08.499Z,42.90
2018-06-02T03:19:36.005Z,42.33
2018-06-02T03:22:02.841Z,42.77
2018-06-02T03:24:30.421Z,43.30
2018-06-02T03:26:57.189Z,43.83
2018-06-02T03:29:24.010Z,40.37
2018-06-02T03:31:51.552Z,41.10
2018-06-02T03:34:18.376Z,40.57
2018-06-02T03:36:45.224Z,37.70
2018-06-02T03:39:12.040Z,39.03
2018-06-02T03:41:39.544Z,39.70
2018-06-02T03:44:06.300Z,38.57
2018-06-02T03:46:33.119Z,36.00
2018-06-02T03:48:59.932Z,37.30
2018-06-02T03:51:27.449Z,38.97
2018-06-02T03:53:54.498Z,41.57
2018-06-02T03:56:21.276Z,40.73
2018-06-02T03:58:48.784Z,41.67
2018-06-02T04:01:15.653Z,42.37
2018-06-02T04:03:42.412Z,41.73
2018-06-02T04:06:09.180Z,43.63
2018-06-02T04:08:36.743Z,46.60
2018-06-02T04:11:03.561Z,44.17
2018-06-02T04:13:31.286Z,45.17
2018-06-02T04:15:58.449Z,44.30
2018-06-02T04:18:25.236Z,41.43
2018-06-02T04:20:52.767Z,41.53
2018-06-02T04:23:19.595Z,35.90
2018-06-02T04:25:46.416Z,36.80
2018-06-02T04:28:13.240Z,35.70
2018-06-02T04:30:40.012Z,40.17
2018-06-02T04:33:06.792Z,40.43
2018-06-02T04:35:33.621Z,36.30
2018-06-02T04:38:00.455Z,35.23
2018-06-02T04:40:27.376Z,35.10
2018-06-02T04:42:54.156Z,32.67
2018-06-02T04:45:26.912Z,31.20
2018-06-02T04:47:53.740Z,30.33
2018-06-02T04:50:21.396Z,30.83
2018-06-02T04:52:48.156Z,30.23
2018-06-02T04:55:14.938Z,31.47
2018-06-02T04:57:42.063Z,32.60
2018-06-02T05:00:08.847Z,32.50
2018-06-02T05:02:35.775Z,31.93
2018-06-02T05:05:03.724Z,31.53
2018-06-02T05:07:30.516Z,31.93
2018-06-02T05:09:58.048Z,31.97
2018-06-02T05:12:24.876Z,31.93
2018-06-02T05:14:51.776Z,32.40
2018-06-02T05:17:18.587Z,31.57
2018-06-02T05:19:45.364Z,29.13
2018-06-02T05:22:12.594Z,30.30
2018-06-02T05:24:40.100Z,32.37
2018-06-02T05:27:07.688Z,31.83
2018-06-02T05:29:34.527Z,31.83
2018-06-02T05:32:01.328Z,28.60
2018-06-02T05:34:28.096Z,30.70
2018-06-02T05:36:54.924Z,30.33
2018-06-02T05:39:21.747Z,28.73
2018-06-02T05:41:48.582Z,30.37
2018-06-02T05:44:15.405Z,28.97
2018-06-02T05:46:42.196Z,28.97
2018-06-02T05:49:09.015Z,28.93
2018-06-02T05:51:35.844Z,30.20
2018-06-02T05:54:02.612Z,30.67
2018-06-02T05:56:29.688Z,30.67
2018-06-02T05:58:56.464Z,29.30
2018-06-02T06:01:23.242Z,29.17
2018-06-02T06:03:50.289Z,30.00
2018-06-02T06:06:17.116Z,28.70
2018-06-02T06:08:43.908Z,29.13
2018-06-02T06:11:10.727Z,30.97
2018-06-02T06:13:37.515Z,29.77
2018-06-02T06:16:04.495Z,28.43
2018-06-02T06:18:32.047Z,28.43
2018-06-02T06:20:58.836Z,28.63
2018-06-02T06:23:25.696Z,29.37
2018-06-02T06:25:52.488Z,30.50
2018-06-02T06:28:19.313Z,28.87
2018-06-02T06:30:46.132Z,29.63
2018-06-02T06:33:12.999Z,28.00
2018-06-02T06:35:39.707Z,28.47
2018-06-02T06:38:06.796Z,28.27
2018-06-02T06:40:33.615Z,29.50
2018-06-02T06:43:00.379Z,29.40
2018-06-02T06:45:27.232Z,29.53
2018-06-02T06:47:54.746Z,29.93
2018-06-02T06:50:21.527Z,29.50
2018-06-02T06:52:48.631Z,31.87
2018-06-02T06:55:15.530Z,34.70
2018-06-02T06:57:43.154Z,34.80
2018-06-02T07:00:09.962Z,34.40
2018-06-02T07:02:36.799Z,35.53
2018-06-02T07:05:03.676Z,32.70
2018-06-02T07:07:30.451Z,28.13
2018-06-02T07:09:57.270Z,28.03
2018-06-02T07:12:24.039Z,27.67
2018-06-02T07:14:50.807Z,27.03
2018-06-02T07:17:17.743Z,25.70
2018-06-02T07:19:45.267Z,25.73
2018-06-02T07:22:12.280Z,24.47
2018-06-02T07:24:39.107Z,23.47
2018-06-02T07:27:09.439Z,22.03
2018-06-02T07:29:36.328Z,21.33
2018-06-02T07:32:03.474Z,23.90
2018-06-02T07:34:30.248Z,22.93
2018-06-02T07:36:57.021Z,22.10
2018-06-02T07:39:23.823Z,23.13
2018-06-02T07:41:50.695Z,22.63
2018-06-02T07:44:18.278Z,22.70
2018-06-02T07:46:45.072Z,22.97
2018-06-02T07:49:11.928Z,22.83
2018-06-02T07:51:38.758Z,22.27
2018-06-02T07:54:05.626Z,22.57
2018-06-02T07:56:33.177Z,22.30
2018-06-02T07:59:01.013Z,21.83
2018-06-02T08:01:27.778Z,23.87
2018-06-02T08:03:54.559Z,23.57
2018-06-02T08:06:21.424Z,22.43
2018-06-02T08:08:48.228Z,24.10
2018-06-02T08:11:15.787Z,25.30
2018-06-02T08:13:43.301Z,24.50
2018-06-02T08:16:10.139Z,22.23
2018-06-02T08:18:38.051Z,23.87
2018-06-02T08:21:04.859Z,24.70
2018-06-02T08:23:31.643Z,26.37
2018-06-02T08:25:59.325Z,25.37
2018-06-02T08:28:26.836Z,23.77
2018-06-02T08:30:53.724Z,22.30
2018-06-02T08:33:21.290Z,24.47
2018-06-02T08:35:48.065Z,25.83
2018-06-02T08:38:15.578Z,27.70
2018-06-02T08:40:43.273Z,30.30
2018-06-02T08:43:10.089Z,26.97
2018-06-02T08:45:37.599Z,30.03
2018-06-02T08:48:04.581Z,37.30
2018-06-02T08:50:31.351Z,29.23
2018-06-02T08:52:58.121Z,26.73
2018-06-02T08:55:25.711Z,26.30
2018-06-02T08:57:52.592Z,24.07
2018-06-02T09:00:20.124Z,24.43
2018-06-02T09:02:47.096Z,22.10
2018-06-02T09:05:14.614Z,21.67
2018-06-02T09:07:42.182Z,22.60
2018-06-02T09:10:09.010Z,24.33
2018-06-02T09:12:35.781Z,23.80
2018-06-02T09:15:02.576Z,22.47
2018-06-02T09:17:29.388Z,22.73
2018-06-02T09:19:56.222Z,22.67
2018-06-02T09:22:23.935Z,23.77
2018-06-02T09:24:50.752Z,21.83
2018-06-02T09:27:17.535Z,21.97
2018-06-02T09:29:44.303Z,21.33
2018-06-02T09:32:11.224Z,24.40
2018-06-02T09:34:37.988Z,25.97
2018-06-02T09:37:04.787Z,26.10
2018-06-02T09:39:31.604Z,24.90
2018-06-02T09:41:58.612Z,27.70
2018-06-02T09:44:25.459Z,28.30
2018-06-02T09:46:52.291Z,29.00
2018-06-02T09:49:19.080Z,32.73
2018-06-02T09:51:45.896Z,33.23
2018-06-02T09:54:12.723Z,34.67
2018-06-02T09:56:39.590Z,34.57
2018-06-02T09:59:06.375Z,32.20
2018-06-02T10:01:40.197Z,29.03
2018-06-02T10:04:07.209Z,30.30
2018-06-02T10:06:34.735Z,30.43
2018-06-02T10:09:01.644Z,29.30
2018-06-02T10:11:28.443Z,32.60
2018-06-02T10:13:55.976Z,32.57
2018-06-02T10:16:22.823Z,34.23
2018-06-02T10:18:49.625Z,34.70
2018-06-02T10:21:16.557Z,35.40
2018-06-02T10:23:43.549Z,32.60
2018-06-02T10:26:10.335Z,30.03
2018-06-02T10:28:37.861Z,29.83
2018-06-02T10:31:04.734Z,30.33
2018-06-02T10:33:31.656Z,29.40
2018-06-02T10:35:58.445Z,26.53
2018-06-02T10:38:25.289Z,27.23
2018-06-02T10:40:52.076Z,27.00
2018-06-02T10:43:18.855Z,26.13
2018-06-02T10:45:45.760Z,25.13
2018-06-02T10:48:12.547Z,27.33
2018-06-02T10:50:40.072Z,26.17
2018-06-02T10:53:06.927Z,28.67
2018-06-02T10:55:33.711Z,27.83
2018-06-02T10:58:00.548Z,27.60
2018-06-02T11:00:27.385Z,28.87
2018-06-02T11:02:54.155Z,28.57
2018-06-02T11:05:20.987Z,27.87
2018-06-02T11:07:47.813Z,28.97
2018-06-02T11:10:14.760Z,30.80
2018-06-02T11:12:42.296Z,27.17
2018-06-02T11:15:09.117Z,31.67
2018-06-02T11:17:35.944Z,35.37
2018-06-02T11:20:02.797Z,31.87
2018-06-02T11:22:30.456Z,33.03
2018-06-02T11:24:57.284Z,34.10
2018-06-02T11:27:24.061Z,36.73
2018-06-02T11:29:50.842Z,36.50
2018-06-02T11:32:18.408Z,32.83
2018-06-02T11:34:45.244Z,32.00
2018-06-02T11:37:12.763Z,30.27
2018-06-02T11:39:39.575Z,26.73
2018-06-02T11:42:06.348Z,26.17
2018-06-02T11:44:33.153Z,24.03
2018-06-02T11:47:00.162Z,24.73
2018-06-02T11:49:26.944Z,24.00
2018-06-02T11:51:53.743Z,22.77
2018-06-02T11:54:20.566Z,22.57
2018-06-02T11:56:47.358Z,21.07
2018-06-02T11:59:14.187Z,22.53
2018-06-02T12:01:41.751Z,23.23
2018-06-02T12:04:09.279Z,26.97
2018-06-02T12:06:36.068Z,28.23
2018-06-02T12:09:03.008Z,27.13
2018-06-02T12:11:29.848Z,27.10
2018-06-02T12:13:57.402Z,22.47
2018-06-02T12:16:24.226Z,18.50
2018-06-02T12:18:50.998Z,19.33
2018-06-02T12:21:17.776Z,17.07
2018-06-02T12:23:45.556Z,17.37
2018-06-02T12:26:12.364Z,18.43
2018-06-02T12:28:39.304Z,15.77
2018-06-02T12:31:06.176Z,15.23
2018-06-02T12:33:32.957Z,15.87
2018-06-02T12:35:59.843Z,15.07
2018-06-02T12:38:26.781Z,14.57
2018-06-02T12:40:53.557Z,13.13
2018-06-02T12:43:20.344Z,14.13
2018-06-02T12:45:47.221Z,14.10
2018-06-02T12:48:15.551Z,13.13
2018-06-02T12:50:42.341Z,13.90
2018-06-02T12:53:09.168Z,13.60
2018-06-02T12:55:36.684Z,14.37
2018-06-02T12:58:03.472Z,13.27
2018-06-02T13:00:30.645Z,12.43
2018-06-02T13:02:57.625Z,13.03
2018-06-02T13:05:24.412Z,13.47
2018-06-02T13:07:51.980Z,13.03
2018-06-02T13:10:18.776Z,11.77
2018-06-02T13:12:46.568Z,11.50
2018-06-02T13:15:13.380Z,12.53
2018-06-02T13:17:40.207Z,11.50
2018-06-02T13:20:06.987Z,18.30
2018-06-02T13:22:33.884Z,16.10
2018-06-02T13:25:00.720Z,14.23
2018-06-02T13:27:27.496Z,15.80
2018-06-02T13:29:54.323Z,14.77
2018-06-02T13:32:21.121Z,12.73
2018-06-02T13:34:48.646Z,12.53
2018-06-02T13:37:15.841Z,14.27
2018-06-02T13:39:43.662Z,14.17
2018-06-02T13:42:10.527Z,13.60
2018-06-02T13:44:37.327Z,14.57
2018-06-02T13:47:04.155Z,15.67
2018-06-02T13:49:30.983Z,16.27
2018-06-02T13:51:57.892Z,15.50
2018-06-02T13:54:24.670Z,14.73
2018-06-02T13:56:52.214Z,16.13
2018-06-02T13:59:19.066Z,17.80
2018-06-02T14:01:45.887Z,17.70
2018-06-02T14:04:12.718Z,17.67
2018-06-02T14:06:39.495Z,19.50
2018-06-02T14:09:06.292Z,19.80
2018-06-02T14:11:33.107Z,19.97
2018-06-02T14:13:59.986Z,17.63
2018-06-02T14:16:26.759Z,16.93
2018-06-02T14:18:53.724Z,18.67
2018-06-02T14:21:21.239Z,19.83
2018-06-02T14:23:48.025Z,24.60
2018-06-02T14:26:14.969Z,26.17
2018-06-02T14:28:42.497Z,24.47
2018-06-02T14:31:09.276Z,24.20
2018-06-02T14:33:36.997Z,24.97
2018-06-02T14:36:03.818Z,17.17
2018-06-02T14:38:30.652Z,14.70
2018-06-02T14:40:57.486Z,16.73
2018-06-02T14:43:24.255Z,17.80
2018-06-02T14:45:51.080Z,16.53
2018-06-02T14:48:17.864Z,12.83
2018-06-02T14:50:44.683Z,9.87
2018-06-02T14:53:11.655Z,10.37
2018-06-02T14:55:38.440Z,9.93
2018-06-02T14:58:05.231Z,11.90
2018-06-02T15:00:32.067Z,12.43
2018-06-02T15:02:58.903Z,10.27
2018-06-02T15:05:25.677Z,8.90
2018-06-02T15:07:52.518Z,8.20
2018-06-02T15:10:19.308Z,8.53
2018-06-02T15:12:46.088Z,8.47
2018-06-02T15:15:13.048Z,8.07
2018-06-02T15:17:39.865Z,10.40
2018-06-02T15:20:07.388Z,11.63
2018-06-02T15:22:34.896Z,11.90
2018-06-02T15:25:01.738Z,11.83
2018-06-02T15:27:28.583Z,15.40
2018-06-02T15:29:55.400Z,12.97
2018-06-02T15:32:22.171Z,12.80
2018-06-02T15:34:48.984Z,11.07
2018-06-02T15:37:15.788Z,10.97
2018-06-02T15:39:42.616Z,10.07
2018-06-02T15:42:09.390Z,8.60
2018-06-02T15:44:36.959Z,9.20
2018-06-02T15:47:03.811Z,9.10
2018-06-02T15:49:30.617Z,8.77
2018-06-02T15:51:57.492Z,9.57
2018-06-02T15:54:24.255Z,10.60
2018-06-02T15:56:51.031Z,9.97
2018-06-02T15:59:17.850Z,10.60
2018-06-02T16:01:44.636Z,11.13
2018-06-02T16:04:11.458Z,10.63
2018-06-02T16:06:38.275Z,11.07
2018-06-02T16:09:05.107Z,11.03
2018-06-02T16:11:31.884Z,11.93
2018-06-02T16:13:58.717Z,11.30
2018-06-02T16:16:25.652Z,11.67
2018-06-02T16:18:52.437Z,11.93
2018-06-02T16:21:19.258Z,12.77
2018-06-02T16:23:46.039Z,12.27
2018-06-02T16:26:12.816Z,11.23
2018-06-02T16:28:39.668Z,11.47
2018-06-02T16:31:06.439Z,11.80
2018-06-02T16:33:33.212Z,11.60
2018-06-02T16:36:00.778Z,11.60
2018-06-02T16:38:28.288Z,10.03
2018-06-02T16:40:55.863Z,11.57
2018-06-02T16:43:22.684Z,11.20
2018-06-02T16:45:49.462Z,10.40
2018-06-02T16:48:16.236Z,11.00
2018-06-02T16:50:43.050Z,10.13
2018-06-02T16:53:09.876Z,9.63
2018-06-02T16:55:36.676Z,11.13
2018-06-02T16:58:03.676Z,12.37
2018-06-02T17:00:30.452Z,11.77
2018-06-02T17:02:57.962Z,12.80
2018-06-02T17:05:25.578Z,12.53
2018-06-02T17:07:52.364Z,11.83
2018-06-02T17:10:19.134Z,11.47
2018-06-02T17:12:46.017Z,12.50
2018-06-02T17:15:12.791Z,12.47
2018-06-02T17:17:39.748Z,12.63
2018-06-02T17:20:06.852Z,13.00
2018-06-02T17:22:33.635Z,14.57
2018-06-02T17:25:00.411Z,14.90
2018-06-02T17:27:27.372Z,15.93
2018-06-02T17:29:54.194Z,17.00
2018-06-02T17:32:20.966Z,17.47
2018-06-02T17:34:47.860Z,20.13
2018-06-02T17:37:14.658Z,20.20
2018-06-02T17:39:41.427Z,19.87
2018-06-02T17:42:09.192Z,18.90
2018-06-02T17:44:36.028Z,20.03
2018-06-02T17:47:02.807Z,19.13
2018-06-02T17:49:29.620Z,20.87
2018-06-02T17:51:56.387Z,19.57
2018-06-02T17:54:23.214Z,20.10
2018-06-02T17:56:50.270Z,20.97
2018-06-02T17:59:17.819Z,18.23
2018-06-02T18:01:44.612Z,19.33
2018-06-02T18:04:12.171Z,18.37
2018-06-02T18:06:38.995Z,19.00
2018-06-02T18:09:05.825Z,19.93
2018-06-02T18:11:32.651Z,18.77
2018-06-02T18:13:59.413Z,18.13
2018-06-02T18:16:26.188Z,19.87
2018-06-02T18:18:53.206Z,20.37
2018-06-02T18:21:19.964Z,19.93
2018-06-02T18:23:46.728Z,20.87
2018-06-02T18:26:14.280Z,21.80
2018-06-02T18:28:41.803Z,22.57
2018-06-02T18:31:08.627Z,22.70
2018-06-02T18:33:35.446Z,22.23
2018-06-02T18:36:02.219Z,23.60
2018-06-02T18:38:29.024Z,23.23
2018-06-02T18:40:56.586Z,24.37
2018-06-02T18:43:23.467Z,24.30
2018-06-02T18:45:50.241Z,24.00
2018-06-02T18:48:17.006Z,25.80
2018-06-02T18:50:44.563Z,23.33
2018-06-02T18:53:12.058Z,26.60
2018-06-02T18:55:38.873Z,23.97
2018-06-02T18:58:06.430Z,24.77
2018-06-02T19:00:33.929Z,24.03
2018-06-02T19:03:00.704Z,23.03
2018-06-02T19:05:27.514Z,24.47
2018-06-02T19:07:54.329Z,22.87
2018-06-02T19:10:21.847Z,23.40
2018-06-02T19:12:48.660Z,23.10
2018-06-02T19:15:15.494Z,23.60
2018-06-02T19:17:42.247Z,24.60
2018-06-02T19:20:09.908Z,25.00
2018-06-02T19:22:36.732Z,22.93
2018-06-02T19:25:04.247Z,22.90
2018-06-02T19:27:31.058Z,22.97
2018-06-02T19:29:57.825Z,23.20
2018-06-02T19:32:24.656Z,22.63
2018-06-02T19:34:51.471Z,22.43
2018-06-02T19:37:18.243Z,22.47
2018-06-02T19:39:45.008Z,23.50
2018-06-02T19:42:11.826Z,20.20
2018-06-02T19:44:39.381Z,20.20
2018-06-02T19:47:06.160Z,21.73
2018-06-02T19:49:32.988Z,21.73
2018-06-02T19:51:59.759Z,22.23
2018-06-02T19:54:27.271Z,21.63
2018-06-02T19:56:54.883Z,23.90
2018-06-02T19:59:21.672Z,20.50
2018-06-02T20:01:48.446Z,22.07
2018-06-02T20:04:15.270Z,21.70
2018-06-02T20:06:42.028Z,22.50
2018-06-02T20:09:08.844Z,21.40
2018-06-02T20:11:35.668Z,19.80
2018-06-02T20:14:02.488Z,20.10
2018-06-02T20:16:29.996Z,19.90
2018-06-02T20:18:56.859Z,19.30
2018-06-02T20:21:23.670Z,19.27
2018-06-02T20:23:50.432Z,20.03
2018-06-02T20:26:17.243Z,18.90
2018-06-02T20:28:44.007Z,18.93
2018-06-02T20:31:10.780Z,19.37
2018-06-02T20:33:39.229Z,19.50
2018-06-02T20:36:06.749Z,20.37
2018-06-02T20:38:33.522Z,19.00
2018-06-02T20:41:00.492Z,19.37
2018-06-02T20:43:27.275Z,19.37
2018-06-02T20:45:54.102Z,18.40
2018-06-02T20:48:20.928Z,18.87
2018-06-02T20:50:47.731Z,20.17
2018-06-02T20:53:14.558Z,19.23
2018-06-02T20:55:41.332Z,19.00
2018-06-02T20:58:08.896Z,19.87
2018-06-02T21:00:35.665Z,18.57
2018-06-02T21:03:02.638Z,19.73
2018-06-02T21:05:30.172Z,18.53
2018-06-02T21:07:56.952Z,20.53
2018-06-02T21:10:24.767Z,19.67
2018-06-02T21:12:51.543Z,21.77
2018-06-02T21:15:19.047Z,21.23
2018-06-02T21:17:45.860Z,20.63
2018-06-02T21:20:13.395Z,20.17
2018-06-02T21:22:40.288Z,19.87
2018-06-02T21:25:07.924Z,20.00
2018-06-02T21:27:34.736Z,21.57
2018-06-02T21:30:01.512Z,20.37
2018-06-02T21:32:29.086Z,21.10
2018-06-02T21:34:55.902Z,20.43
2018-06-02T21:37:22.667Z,20.37
2018-06-02T21:39:49.511Z,22.00
2018-06-02T21:42:17.056Z,20.80
2018-06-02T21:44:44.557Z,21.87
2018-06-02T21:47:12.172Z,21.33
2018-06-02T21:49:39.687Z,21.17
2018-06-02T21:52:06.463Z,22.43
2018-06-02T21:54:33.271Z,22.57
2018-06-02T21:57:00.047Z,20.93
2018-06-02T21:59:26.887Z,20.77
2018-06-02T22:01:53.737Z,22.90
2018-06-02T22:04:20.503Z,20.90
2018-06-02T22:06:48.018Z,22.27
2018-06-02T22:09:14.839Z,23.17
2018-06-02T22:11:41.671Z,22.40
2018-06-02T22:14:08.440Z,23.33
2018-06-02T22:16:35.254Z,22.37
2018-06-02T22:19:02.060Z,23.60
2018-06-02T22:21:28.839Z,23.63
2018-06-02T22:23:55.714Z,23.17
2018-06-02T22:26:22.492Z,23.60
2018-06-02T22:28:50.014Z,23.53
2018-06-02T22:31:16.828Z,24.77
2018-06-02T22:33:43.589Z,22.97
2018-06-02T22:36:10.439Z,24.57
2018-06-02T22:38:37.287Z,24.43
2018-06-02T22:41:04.093Z,22.73
2018-06-02T22:43:31.631Z,23.97
2018-06-02T22:45:59.183Z,24.23
2018-06-02T22:48:26.022Z,24.00
2018-06-02T22:50:52.832Z,23.23
2018-06-02T22:53:19.734Z,23.80
2018-06-02T22:55:47.311Z,25.10
2018-06-02T22:58:14.159Z,24.87
2018-06-02T23:00:41.154Z,24.80
2018-06-02T23:03:07.927Z,23.50
2018-06-02T23:05:35.518Z,24.30
2018-06-02T23:08:02.561Z,24.67
2018-06-02T23:10:29.362Z,23.50
2018-06-02T23:12:56.225Z,26.47
2018-06-02T23:15:23.783Z,26.00
2018-06-02T23:17:51.287Z,24.77
2018-06-02T23:20:18.053Z,24.53
2018-06-02T23:22:44.867Z,26.30
2018-06-02T23:25:11.706Z,24.93
2018-06-02T23:27:38.476Z,25.37
2018-06-02T23:30:05.331Z,24.73
2018-06-02T23:32:32.111Z,24.90
2018-06-02T23:34:59.711Z,28.00
2018-06-02T23:37:26.572Z,28.20
2018-06-02T23:39:53.366Z,27.37
2018-06-02T23:42:20.152Z,25.83
2018-06-02T23:44:46.980Z,26.80
2018-06-02T23:47:13.764Z,25.57
2018-06-02T23:49:40.604Z,26.30
2018-06-02T23:52:07.550Z,25.77
2018-06-02T23:54:34.361Z,26.43
2018-06-02T23:57:01.167Z,28.53
2018-06-02T23:59:27.991Z,26.73
